sensor_id;sensor_type;location;lat;lon;timestamp;temperature;humidity
790;DHT22;378;48.844;9.156;2024-01-11T00:00:30;-2.80;99.90
790;DHT22;378;48.844;9.156;2024-01-11T00:02:57;-2.70;99.90
790;DHT22;378;48.844;9.156;2024-01-11T00:05:24;-2.70;99.90
790;DHT22;378;48.844;9.156;2024-01-11T00:07:51;-2.70;99.90
790;DHT22;378;48.844;9.156;2024-01-11T00:10:18;-2.70;99.90
790;DHT22;378;48.844;9.156;2024-01-11T00:12:47;-2.70;99.90
790;DHT22;378;48.844;9.156;2024-01-11T00:15:14;-2.80;99.90
790;DHT22;378;48.844;9.156;2024-01-11T00:17:40;-2.70;99.90
790;DHT22;378;48.844;9.156;2024-01-11T00:20:08;-2.70;99.90
790;DHT22;378;48.844;9.156;2024-01-11T00:22:36;-2.70;99.90
790;DHT22;378;48.844;9.156;2024-01-11T00:25:03;-2.70;99.90
790;DHT22;378;48.844;9.156;2024-01-11T00:27:30;-2.80;99.90
790;DHT22;378;48.844;9.156;2024-01-11T00:29:58;-2.80;99.90
790;DHT22;378;48.844;9.156;2024-01-11T00:32:25;-2.80;99.90
790;DHT22;378;48.844;9.156;2024-01-11T00:34:52;-2.80;99.90
790;DHT22;378;48.844;9.156;2024-01-11T00:37:19;-2.80;99.90
790;DHT22;378;48.844;9.156;2024-01-11T00:39:46;-2.90;99.90
790;DHT22;378;48.844;9.156;2024-01-11T00:42:13;-2.90;99.90
790;DHT22;378;48.844;9.156;2024-01-11T00:44:40;-3.00;99.90
790;DHT22;378;48.844;9.156;2024-01-11T00:47:08;-3.10;99.90
790;DHT22;378;48.844;9.156;2024-01-11T00:49:36;-3.10;99.90
790;DHT22;378;48.844;9.156;2024-01-11T00:52:03;-3.00;99.90
790;DHT22;378;48.844;9.156;2024-01-11T00:54:30;-3.00;99.90
790;DHT22;378;48.844;9.156;2024-01-11T00:56:56;-3.00;99.90
790;DHT22;378;48.844;9.156;2024-01-11T00:59:23;-3.00;99.90
790;DHT22;378;48.844;9.156;2024-01-11T01:01:50;-3.00;99.90
790;DHT22;378;48.844;9.156;2024-01-11T01:04:18;-3.00;99.90
790;DHT22;378;48.844;9.156;2024-01-11T01:06:45;-3.00;99.90
790;DHT22;378;48.844;9.156;2024-01-11T01:09:12;-3.00;99.90
790;DHT22;378;48.844;9.156;2024-01-11T01:11:40;-3.00;99.90
790;DHT22;378;48.844;9.156;2024-01-11T01:14:07;-3.10;99.90
790;DHT22;378;48.844;9.156;2024-01-11T01:16:33;-3.10;99.90
790;DHT22;378;48.844;9.156;2024-01-11T01:19:00;-3.00;99.90
790;DHT22;378;48.844;9.156;2024-01-11T01:21:28;-3.10;99.90
790;DHT22;378;48.844;9.156;2024-01-11T01:23:55;-3.10;99.90
790;DHT22;378;48.844;9.156;2024-01-11T01:26:22;-3.10;99.90
790;DHT22;378;48.844;9.156;2024-01-11T01:28:49;-3.20;99.90
790;DHT22;378;48.844;9.156;2024-01-11T01:31:15;-3.10;99.90
790;DHT22;378;48.844;9.156;2024-01-11T01:33:42;-3.10;99.90
790;DHT22;378;48.844;9.156;2024-01-11T01:36:10;-3.00;99.90
790;DHT22;378;48.844;9.156;2024-01-11T01:38:38;-3.00;99.90
790;DHT22;378;48.844;9.156;2024-01-11T01:41:05;-3.00;99.90
790;DHT22;378;48.844;9.156;2024-01-11T01:43:32;-3.00;99.90
790;DHT22;378;48.844;9.156;2024-01-11T01:45:59;-3.00;99.90
790;DHT22;378;48.844;9.156;2024-01-11T01:48:27;-3.10;99.90
790;DHT22;378;48.844;9.156;2024-01-11T01:50:54;-3.10;99.90
790;DHT22;378;48.844;9.156;2024-01-11T01:53:22;-3.00;99.90
790;DHT22;378;48.844;9.156;2024-01-11T01:55:52;-3.00;99.90
790;DHT22;378;48.844;9.156;2024-01-11T01:58:20;-3.10;99.90
790;DHT22;378;48.844;9.156;2024-01-11T02:00:47;-3.10;99.90
790;DHT22;378;48.844;9.156;2024-01-11T02:03:15;-3.00;99.90
790;DHT22;378;48.844;9.156;2024-01-11T02:05:42;-3.00;99.90
790;DHT22;378;48.844;9.156;2024-01-11T02:08:12;-3.10;99.90
790;DHT22;378;48.844;9.156;2024-01-11T02:10:42;-3.10;99.90
790;DHT22;378;48.844;9.156;2024-01-11T02:13:11;-3.20;99.90
790;DHT22;378;48.844;9.156;2024-01-11T02:15:38;-3.30;99.90
790;DHT22;378;48.844;9.156;2024-01-11T02:18:05;-3.40;99.90
790;DHT22;378;48.844;9.156;2024-01-11T02:20:32;-3.40;99.90
790;DHT22;378;48.844;9.156;2024-01-11T02:23:03;-3.40;99.90
790;DHT22;378;48.844;9.156;2024-01-11T02:25:33;-3.40;99.90
790;DHT22;378;48.844;9.156;2024-01-11T02:28:00;-3.40;99.90
790;DHT22;378;48.844;9.156;2024-01-11T02:30:26;-3.20;99.90
790;DHT22;378;48.844;9.156;2024-01-11T02:32:53;-3.20;99.90
790;DHT22;378;48.844;9.156;2024-01-11T02:35:20;-3.20;99.90
790;DHT22;378;48.844;9.156;2024-01-11T02:37:47;-3.20;99.90
790;DHT22;378;48.844;9.156;2024-01-11T02:40:14;-3.20;99.90
790;DHT22;378;48.844;9.156;2024-01-11T02:42:43;-3.20;99.90
790;DHT22;378;48.844;9.156;2024-01-11T02:45:10;-3.20;99.90
790;DHT22;378;48.844;9.156;2024-01-11T02:47:37;-3.20;99.90
790;DHT22;378;48.844;9.156;2024-01-11T02:50:05;-3.20;99.90
790;DHT22;378;48.844;9.156;2024-01-11T02:52:32;-3.30;99.90
790;DHT22;378;48.844;9.156;2024-01-11T02:54:59;-3.30;99.90
790;DHT22;378;48.844;9.156;2024-01-11T02:57:26;-3.40;99.90
790;DHT22;378;48.844;9.156;2024-01-11T02:59:54;-3.40;99.90
790;DHT22;378;48.844;9.156;2024-01-11T03:02:21;-3.40;99.90
790;DHT22;378;48.844;9.156;2024-01-11T03:04:48;-3.40;99.90
790;DHT22;378;48.844;9.156;2024-01-11T03:07:15;-3.40;99.90
790;DHT22;378;48.844;9.156;2024-01-11T03:09:42;-3.50;99.90
790;DHT22;378;48.844;9.156;2024-01-11T03:12:09;-3.50;99.90
790;DHT22;378;48.844;9.156;2024-01-11T03:14:35;-3.60;99.90
790;DHT22;378;48.844;9.156;2024-01-11T03:17:04;-3.50;99.90
790;DHT22;378;48.844;9.156;2024-01-11T03:19:31;-3.50;99.90
790;DHT22;378;48.844;9.156;2024-01-11T03:21:58;-3.50;99.90
790;DHT22;378;48.844;9.156;2024-01-11T03:24:28;-3.60;99.90
790;DHT22;378;48.844;9.156;2024-01-11T03:26:55;-3.50;99.90
790;DHT22;378;48.844;9.156;2024-01-11T03:29:22;-3.50;99.90
790;DHT22;378;48.844;9.156;2024-01-11T03:31:49;-3.50;99.90
790;DHT22;378;48.844;9.156;2024-01-11T03:34:17;-3.60;99.90
790;DHT22;378;48.844;9.156;2024-01-11T03:36:44;-3.50;99.90
790;DHT22;378;48.844;9.156;2024-01-11T03:39:10;-3.60;99.90
790;DHT22;378;48.844;9.156;2024-01-11T03:41:37;-3.60;99.90
790;DHT22;378;48.844;9.156;2024-01-11T03:44:09;-3.60;99.90
790;DHT22;378;48.844;9.156;2024-01-11T03:46:36;-3.60;99.90
790;DHT22;378;48.844;9.156;2024-01-11T03:49:02;-3.60;99.90
790;DHT22;378;48.844;9.156;2024-01-11T03:51:31;-3.50;99.90
790;DHT22;378;48.844;9.156;2024-01-11T03:53:57;-3.50;99.90
790;DHT22;378;48.844;9.156;2024-01-11T03:56:26;-3.50;99.90
790;DHT22;378;48.844;9.156;2024-01-11T03:58:53;-3.50;99.90
790;DHT22;378;48.844;9.156;2024-01-11T04:01:19;-3.50;99.90
790;DHT22;378;48.844;9.156;2024-01-11T04:03:46;-3.60;99.90
790;DHT22;378;48.844;9.156;2024-01-11T04:06:19;-3.50;99.90
790;DHT22;378;48.844;9.156;2024-01-11T04:08:49;-3.50;99.90
790;DHT22;378;48.844;9.156;2024-01-11T04:11:16;-3.50;99.90
790;DHT22;378;48.844;9.156;2024-01-11T04:13:43;-3.60;99.90
790;DHT22;378;48.844;9.156;2024-01-11T04:16:10;-3.60;99.90
790;DHT22;378;48.844;9.156;2024-01-11T04:18:37;-3.70;99.90
790;DHT22;378;48.844;9.156;2024-01-11T04:21:04;-3.70;99.90
790;DHT22;378;48.844;9.156;2024-01-11T04:23:31;-3.70;99.90
790;DHT22;378;48.844;9.156;2024-01-11T04:25:59;-3.70;99.90
790;DHT22;378;48.844;9.156;2024-01-11T04:28:26;-3.60;99.90
790;DHT22;378;48.844;9.156;2024-01-11T04:30:52;-3.50;99.90
790;DHT22;378;48.844;9.156;2024-01-11T04:33:19;-3.50;99.90
790;DHT22;378;48.844;9.156;2024-01-11T04:35:45;-3.50;99.90
790;DHT22;378;48.844;9.156;2024-01-11T04:38:12;-3.50;99.90
790;DHT22;378;48.844;9.156;2024-01-11T04:40:39;-3.60;99.90
790;DHT22;378;48.844;9.156;2024-01-11T04:43:07;-3.70;99.90
790;DHT22;378;48.844;9.156;2024-01-11T04:45:34;-3.80;99.90
790;DHT22;378;48.844;9.156;2024-01-11T04:48:01;-3.80;99.90
790;DHT22;378;48.844;9.156;2024-01-11T04:50:28;-3.90;99.90
790;DHT22;378;48.844;9.156;2024-01-11T04:52:55;-4.00;99.90
790;DHT22;378;48.844;9.156;2024-01-11T04:55:21;-4.00;99.90
790;DHT22;378;48.844;9.156;2024-01-11T04:57:48;-4.00;99.90
790;DHT22;378;48.844;9.156;2024-01-11T05:00:17;-3.90;99.90
790;DHT22;378;48.844;9.156;2024-01-11T05:02:44;-3.80;99.90
790;DHT22;378;48.844;9.156;2024-01-11T05:05:11;-3.80;99.90
790;DHT22;378;48.844;9.156;2024-01-11T05:07:38;-3.70;99.90
790;DHT22;378;48.844;9.156;2024-01-11T05:10:06;-3.70;99.90
790;DHT22;378;48.844;9.156;2024-01-11T05:12:33;-3.70;99.90
790;DHT22;378;48.844;9.156;2024-01-11T05:15:00;-3.80;99.90
790;DHT22;378;48.844;9.156;2024-01-11T05:17:29;-3.80;99.90
790;DHT22;378;48.844;9.156;2024-01-11T05:19:56;-3.70;99.90
790;DHT22;378;48.844;9.156;2024-01-11T05:22:23;-3.70;99.90
790;DHT22;378;48.844;9.156;2024-01-11T05:24:50;-3.70;99.90
790;DHT22;378;48.844;9.156;2024-01-11T05:27:17;-3.70;99.90
790;DHT22;378;48.844;9.156;2024-01-11T05:29:43;-3.70;99.90
790;DHT22;378;48.844;9.156;2024-01-11T05:32:10;-3.70;99.90
790;DHT22;378;48.844;9.156;2024-01-11T05:34:38;-3.80;99.90
790;DHT22;378;48.844;9.156;2024-01-11T05:37:05;-3.90;99.90
790;DHT22;378;48.844;9.156;2024-01-11T05:39:32;-3.80;99.90
790;DHT22;378;48.844;9.156;2024-01-11T05:41:59;-3.80;99.90
790;DHT22;378;48.844;9.156;2024-01-11T05:44:26;-3.80;99.90
790;DHT22;378;48.844;9.156;2024-01-11T05:46:52;-3.90;99.90
790;DHT22;378;48.844;9.156;2024-01-11T05:49:19;-3.90;99.90
790;DHT22;378;48.844;9.156;2024-01-11T05:51:48;-3.90;99.90
790;DHT22;378;48.844;9.156;2024-01-11T05:54:15;-3.90;99.90
790;DHT22;378;48.844;9.156;2024-01-11T05:56:41;-3.90;99.90
790;DHT22;378;48.844;9.156;2024-01-11T05:59:08;-3.90;99.90
790;DHT22;378;48.844;9.156;2024-01-11T06:01:40;-3.80;99.90
790;DHT22;378;48.844;9.156;2024-01-11T06:04:07;-3.70;99.90
790;DHT22;378;48.844;9.156;2024-01-11T06:06:34;-3.70;99.90
790;DHT22;378;48.844;9.156;2024-01-11T06:09:02;-3.70;99.90
790;DHT22;378;48.844;9.156;2024-01-11T06:11:30;-3.70;99.90
790;DHT22;378;48.844;9.156;2024-01-11T06:13:57;-3.70;99.90
790;DHT22;378;48.844;9.156;2024-01-11T06:16:24;-3.70;99.90
790;DHT22;378;48.844;9.156;2024-01-11T06:18:51;-3.80;99.90
790;DHT22;378;48.844;9.156;2024-01-11T06:21:17;-3.80;99.90
790;DHT22;378;48.844;9.156;2024-01-11T06:23:44;-3.90;99.90
790;DHT22;378;48.844;9.156;2024-01-11T06:26:12;-4.00;99.90
790;DHT22;378;48.844;9.156;2024-01-11T06:28:39;-4.10;99.90
790;DHT22;378;48.844;9.156;2024-01-11T06:31:06;-4.20;99.90
790;DHT22;378;48.844;9.156;2024-01-11T06:33:33;-4.20;99.90
790;DHT22;378;48.844;9.156;2024-01-11T06:36:06;-4.10;99.90
790;DHT22;378;48.844;9.156;2024-01-11T06:38:33;-4.10;99.90
790;DHT22;378;48.844;9.156;2024-01-11T06:41:00;-4.30;99.90
790;DHT22;378;48.844;9.156;2024-01-11T06:43:28;-4.30;99.90
790;DHT22;378;48.844;9.156;2024-01-11T06:45:55;-4.40;99.90
790;DHT22;378;48.844;9.156;2024-01-11T06:48:22;-4.40;99.90
790;DHT22;378;48.844;9.156;2024-01-11T06:50:49;-4.40;99.90
790;DHT22;378;48.844;9.156;2024-01-11T06:53:16;-4.40;99.90
790;DHT22;378;48.844;9.156;2024-01-11T06:55:43;-4.50;99.90
790;DHT22;378;48.844;9.156;2024-01-11T06:58:10;-4.50;99.90
790;DHT22;378;48.844;9.156;2024-01-11T07:00:38;-4.50;99.90
790;DHT22;378;48.844;9.156;2024-01-11T07:03:08;-4.40;99.90
790;DHT22;378;48.844;9.156;2024-01-11T07:05:36;-4.30;99.90
790;DHT22;378;48.844;9.156;2024-01-11T07:08:03;-4.10;99.90
790;DHT22;378;48.844;9.156;2024-01-11T07:10:31;-4.10;99.90
790;DHT22;378;48.844;9.156;2024-01-11T07:13:00;-4.00;99.90
790;DHT22;378;48.844;9.156;2024-01-11T07:15:27;-3.90;99.90
790;DHT22;378;48.844;9.156;2024-01-11T07:17:56;-4.00;99.90
790;DHT22;378;48.844;9.156;2024-01-11T07:20:22;-3.90;99.90
790;DHT22;378;48.844;9.156;2024-01-11T07:22:49;-3.90;99.90
790;DHT22;378;48.844;9.156;2024-01-11T07:25:16;-4.00;99.90
790;DHT22;378;48.844;9.156;2024-01-11T07:27:43;-3.90;99.90
790;DHT22;378;48.844;9.156;2024-01-11T07:30:11;-3.90;99.90
790;DHT22;378;48.844;9.156;2024-01-11T07:32:38;-3.90;99.90
790;DHT22;378;48.844;9.156;2024-01-11T07:35:07;-3.80;99.90
790;DHT22;378;48.844;9.156;2024-01-11T07:37:36;-3.90;99.90
790;DHT22;378;48.844;9.156;2024-01-11T07:40:03;-4.00;99.90
790;DHT22;378;48.844;9.156;2024-01-11T07:42:30;-4.00;99.90
790;DHT22;378;48.844;9.156;2024-01-11T07:44:57;-3.90;99.90
790;DHT22;378;48.844;9.156;2024-01-11T07:47:24;-4.00;99.90
790;DHT22;378;48.844;9.156;2024-01-11T07:49:51;-4.00;99.90
790;DHT22;378;48.844;9.156;2024-01-11T07:52:19;-4.10;99.90
790;DHT22;378;48.844;9.156;2024-01-11T07:54:46;-4.00;99.90
790;DHT22;378;48.844;9.156;2024-01-11T07:57:13;-3.90;99.90
790;DHT22;378;48.844;9.156;2024-01-11T07:59:40;-3.90;99.90
790;DHT22;378;48.844;9.156;2024-01-11T08:02:07;-3.90;99.90
790;DHT22;378;48.844;9.156;2024-01-11T08:04:34;-3.80;99.90
790;DHT22;378;48.844;9.156;2024-01-11T08:07:00;-3.80;99.90
790;DHT22;378;48.844;9.156;2024-01-11T08:09:29;-3.90;99.90
790;DHT22;378;48.844;9.156;2024-01-11T08:11:56;-4.00;99.90
790;DHT22;378;48.844;9.156;2024-01-11T08:14:24;-3.90;99.90
790;DHT22;378;48.844;9.156;2024-01-11T08:16:51;-3.90;99.90
790;DHT22;378;48.844;9.156;2024-01-11T08:19:19;-3.80;99.90
790;DHT22;378;48.844;9.156;2024-01-11T08:21:46;-3.80;99.90
790;DHT22;378;48.844;9.156;2024-01-11T08:24:12;-3.70;99.90
790;DHT22;378;48.844;9.156;2024-01-11T08:26:41;-3.80;99.90
790;DHT22;378;48.844;9.156;2024-01-11T08:29:08;-3.70;99.90
790;DHT22;378;48.844;9.156;2024-01-11T08:31:35;-3.70;99.90
790;DHT22;378;48.844;9.156;2024-01-11T08:34:01;-3.70;99.90
790;DHT22;378;48.844;9.156;2024-01-11T08:36:33;-3.60;99.90
790;DHT22;378;48.844;9.156;2024-01-11T08:39:01;-3.60;99.90
790;DHT22;378;48.844;9.156;2024-01-11T08:41:28;-3.60;99.90
790;DHT22;378;48.844;9.156;2024-01-11T08:43:55;-3.50;99.90
790;DHT22;378;48.844;9.156;2024-01-11T08:46:25;-3.60;99.90
790;DHT22;378;48.844;9.156;2024-01-11T08:48:52;-3.70;99.90
790;DHT22;378;48.844;9.156;2024-01-11T08:51:22;-3.60;99.90
790;DHT22;378;48.844;9.156;2024-01-11T08:53:49;-3.50;99.90
790;DHT22;378;48.844;9.156;2024-01-11T08:56:15;-3.50;99.90
790;DHT22;378;48.844;9.156;2024-01-11T08:58:43;-3.50;99.90
790;DHT22;378;48.844;9.156;2024-01-11T09:01:11;-3.50;99.90
790;DHT22;378;48.844;9.156;2024-01-11T09:03:40;-3.50;99.90
790;DHT22;378;48.844;9.156;2024-01-11T09:06:07;-3.50;99.90
790;DHT22;378;48.844;9.156;2024-01-11T09:08:34;-3.60;99.90
790;DHT22;378;48.844;9.156;2024-01-11T09:11:01;-3.60;99.90
790;DHT22;378;48.844;9.156;2024-01-11T09:13:29;-3.50;99.90
790;DHT22;378;48.844;9.156;2024-01-11T09:15:56;-3.40;99.90
790;DHT22;378;48.844;9.156;2024-01-11T09:18:24;-3.30;99.90
790;DHT22;378;48.844;9.156;2024-01-11T09:20:51;-3.30;99.90
790;DHT22;378;48.844;9.156;2024-01-11T09:23:17;-3.20;99.90
790;DHT22;378;48.844;9.156;2024-01-11T09:25:44;-3.20;99.90
790;DHT22;378;48.844;9.156;2024-01-11T09:28:11;-3.20;99.90
790;DHT22;378;48.844;9.156;2024-01-11T09:30:38;-3.10;99.90
790;DHT22;378;48.844;9.156;2024-01-11T09:33:05;-3.00;99.90
790;DHT22;378;48.844;9.156;2024-01-11T09:35:34;-3.00;99.90
790;DHT22;378;48.844;9.156;2024-01-11T09:38:01;-2.90;99.90
790;DHT22;378;48.844;9.156;2024-01-11T09:40:28;-2.80;99.90
790;DHT22;378;48.844;9.156;2024-01-11T09:42:55;-2.70;99.90
790;DHT22;378;48.844;9.156;2024-01-11T09:45:21;-2.70;99.90
790;DHT22;378;48.844;9.156;2024-01-11T09:47:49;-2.70;99.90
790;DHT22;378;48.844;9.156;2024-01-11T09:50:18;-2.70;99.90
790;DHT22;378;48.844;9.156;2024-01-11T09:52:48;-2.60;99.90
790;DHT22;378;48.844;9.156;2024-01-11T09:55:15;-2.70;99.90
790;DHT22;378;48.844;9.156;2024-01-11T09:57:44;-2.70;99.90
790;DHT22;378;48.844;9.156;2024-01-11T10:00:14;-2.70;99.90
790;DHT22;378;48.844;9.156;2024-01-11T10:02:44;-2.70;99.90
790;DHT22;378;48.844;9.156;2024-01-11T10:05:11;-2.60;99.90
790;DHT22;378;48.844;9.156;2024-01-11T10:07:40;-2.80;99.90
790;DHT22;378;48.844;9.156;2024-01-11T10:10:09;-2.80;99.90
790;DHT22;378;48.844;9.156;2024-01-11T10:12:37;-2.90;99.90
790;DHT22;378;48.844;9.156;2024-01-11T10:15:05;-2.90;99.90
790;DHT22;378;48.844;9.156;2024-01-11T10:17:35;-2.70;99.90
790;DHT22;378;48.844;9.156;2024-01-11T10:20:02;-2.60;99.90
790;DHT22;378;48.844;9.156;2024-01-11T10:22:30;-2.50;99.90
790;DHT22;378;48.844;9.156;2024-01-11T10:25:11;-2.50;99.90
790;DHT22;378;48.844;9.156;2024-01-11T10:27:40;-2.50;99.90
790;DHT22;378;48.844;9.156;2024-01-11T10:30:09;-2.40;99.90
790;DHT22;378;48.844;9.156;2024-01-11T10:32:38;-2.30;99.90
790;DHT22;378;48.844;9.156;2024-01-11T10:35:05;-2.30;99.90
790;DHT22;378;48.844;9.156;2024-01-11T10:37:32;-2.20;99.90
790;DHT22;378;48.844;9.156;2024-01-11T10:40:03;-2.10;99.90
790;DHT22;378;48.844;9.156;2024-01-11T10:42:36;-2.00;99.90
790;DHT22;378;48.844;9.156;2024-01-11T10:45:10;-1.90;99.90
790;DHT22;378;48.844;9.156;2024-01-11T10:47:38;-1.70;99.90
790;DHT22;378;48.844;9.156;2024-01-11T10:50:07;-1.60;99.90
790;DHT22;378;48.844;9.156;2024-01-11T10:52:40;-1.50;99.90
790;DHT22;378;48.844;9.156;2024-01-11T10:55:09;-1.60;99.90
790;DHT22;378;48.844;9.156;2024-01-11T10:57:37;-1.50;99.90
790;DHT22;378;48.844;9.156;2024-01-11T11:00:08;-1.50;99.90
790;DHT22;378;48.844;9.156;2024-01-11T11:02:37;-1.30;99.90
790;DHT22;378;48.844;9.156;2024-01-11T11:05:06;-1.20;99.90
790;DHT22;378;48.844;9.156;2024-01-11T11:07:35;-1.10;99.90
790;DHT22;378;48.844;9.156;2024-01-11T11:10:04;-1.00;99.90
790;DHT22;378;48.844;9.156;2024-01-11T11:12:32;-1.00;99.90
790;DHT22;378;48.844;9.156;2024-01-11T11:15:01;-1.00;99.90
790;DHT22;378;48.844;9.156;2024-01-11T11:17:29;-0.90;99.90
790;DHT22;378;48.844;9.156;2024-01-11T11:19:55;-0.90;99.90
790;DHT22;378;48.844;9.156;2024-01-11T11:22:23;-0.90;99.90
790;DHT22;378;48.844;9.156;2024-01-11T11:25:03;-1.00;99.90
790;DHT22;378;48.844;9.156;2024-01-11T11:27:31;-0.90;99.90
790;DHT22;378;48.844;9.156;2024-01-11T11:29:58;-0.90;99.90
790;DHT22;378;48.844;9.156;2024-01-11T11:32:36;-0.90;99.90
790;DHT22;378;48.844;9.156;2024-01-11T11:35:04;-1.00;99.90
790;DHT22;378;48.844;9.156;2024-01-11T11:37:32;-0.90;99.90
790;DHT22;378;48.844;9.156;2024-01-11T11:39:59;-0.90;99.90
790;DHT22;378;48.844;9.156;2024-01-11T11:42:26;-0.90;99.90
790;DHT22;378;48.844;9.156;2024-01-11T11:44:54;-0.90;99.90
790;DHT22;378;48.844;9.156;2024-01-11T11:47:23;-0.90;99.90
790;DHT22;378;48.844;9.156;2024-01-11T11:50:03;-0.70;99.90
790;DHT22;378;48.844;9.156;2024-01-11T11:52:32;-0.80;99.90
790;DHT22;378;48.844;9.156;2024-01-11T11:54:59;-0.80;99.90
790;DHT22;378;48.844;9.156;2024-01-11T11:57:27;-0.80;99.90
790;DHT22;378;48.844;9.156;2024-01-11T11:59:56;-0.80;99.90
790;DHT22;378;48.844;9.156;2024-01-11T12:02:25;-0.80;99.90
790;DHT22;378;48.844;9.156;2024-01-11T12:04:52;-0.80;99.90
790;DHT22;378;48.844;9.156;2024-01-11T12:07:20;-0.80;99.90
790;DHT22;378;48.844;9.156;2024-01-11T12:09:48;-0.70;99.90
790;DHT22;378;48.844;9.156;2024-01-11T12:12:15;-0.70;99.90
790;DHT22;378;48.844;9.156;2024-01-11T12:14:43;-0.70;99.90
790;DHT22;378;48.844;9.156;2024-01-11T12:17:11;-0.70;99.90
790;DHT22;378;48.844;9.156;2024-01-11T12:19:38;-0.60;99.90
790;DHT22;378;48.844;9.156;2024-01-11T12:22:05;-0.60;99.90
790;DHT22;378;48.844;9.156;2024-01-11T12:24:33;-0.60;99.90
790;DHT22;378;48.844;9.156;2024-01-11T12:27:01;-0.60;99.90
790;DHT22;378;48.844;9.156;2024-01-11T12:29:29;-0.50;99.90
790;DHT22;378;48.844;9.156;2024-01-11T12:31:57;-0.40;99.90
790;DHT22;378;48.844;9.156;2024-01-11T12:34:24;-0.30;99.90
790;DHT22;378;48.844;9.156;2024-01-11T12:36:52;-0.30;99.90
790;DHT22;378;48.844;9.156;2024-01-11T12:39:20;-0.30;99.90
790;DHT22;378;48.844;9.156;2024-01-11T12:41:49;-0.20;99.90
790;DHT22;378;48.844;9.156;2024-01-11T12:44:17;-0.20;99.90
790;DHT22;378;48.844;9.156;2024-01-11T12:46:47;-0.20;99.90
790;DHT22;378;48.844;9.156;2024-01-11T12:49:14;-0.10;99.90
790;DHT22;378;48.844;9.156;2024-01-11T12:51:41;-0.20;99.90
790;DHT22;378;48.844;9.156;2024-01-11T12:54:11;-0.10;99.90
790;DHT22;378;48.844;9.156;2024-01-11T12:56:41;0.00;99.90
790;DHT22;378;48.844;9.156;2024-01-11T12:59:10;-0.10;99.90
790;DHT22;378;48.844;9.156;2024-01-11T13:01:38;-0.10;99.90
790;DHT22;378;48.844;9.156;2024-01-11T13:04:07;0.00;99.90
790;DHT22;378;48.844;9.156;2024-01-11T13:06:34;0.00;99.90
790;DHT22;378;48.844;9.156;2024-01-11T13:09:01;0.00;99.90
790;DHT22;378;48.844;9.156;2024-01-11T13:11:29;0.10;99.90
790;DHT22;378;48.844;9.156;2024-01-11T13:13:56;0.10;99.90
790;DHT22;378;48.844;9.156;2024-01-11T13:16:28;0.10;99.90
790;DHT22;378;48.844;9.156;2024-01-11T13:18:55;0.00;99.90
790;DHT22;378;48.844;9.156;2024-01-11T13:21:22;0.10;99.90
790;DHT22;378;48.844;9.156;2024-01-11T13:23:48;0.20;99.90
790;DHT22;378;48.844;9.156;2024-01-11T13:26:15;0.20;99.90
790;DHT22;378;48.844;9.156;2024-01-11T13:28:42;0.40;99.90
790;DHT22;378;48.844;9.156;2024-01-11T13:31:09;0.40;99.90
790;DHT22;378;48.844;9.156;2024-01-11T13:33:38;0.60;99.90
790;DHT22;378;48.844;9.156;2024-01-11T13:36:06;0.60;99.90
790;DHT22;378;48.844;9.156;2024-01-11T13:38:34;0.60;99.90
790;DHT22;378;48.844;9.156;2024-01-11T13:41:01;0.60;99.90
790;DHT22;378;48.844;9.156;2024-01-11T13:43:27;0.70;99.90
790;DHT22;378;48.844;9.156;2024-01-11T13:45:54;0.60;99.90
790;DHT22;378;48.844;9.156;2024-01-11T13:48:21;0.70;99.90
790;DHT22;378;48.844;9.156;2024-01-11T13:50:49;0.60;99.90
790;DHT22;378;48.844;9.156;2024-01-11T13:53:16;0.50;99.90
790;DHT22;378;48.844;9.156;2024-01-11T13:55:43;0.50;99.90
790;DHT22;378;48.844;9.156;2024-01-11T13:58:10;0.60;99.90
790;DHT22;378;48.844;9.156;2024-01-11T14:00:38;0.60;99.90
790;DHT22;378;48.844;9.156;2024-01-11T14:03:05;0.50;99.90
790;DHT22;378;48.844;9.156;2024-01-11T14:05:31;0.60;99.90
790;DHT22;378;48.844;9.156;2024-01-11T14:08:00;0.60;99.90
790;DHT22;378;48.844;9.156;2024-01-11T14:10:31;0.60;99.90
790;DHT22;378;48.844;9.156;2024-01-11T14:12:58;0.60;99.90
790;DHT22;378;48.844;9.156;2024-01-11T14:15:25;0.50;99.90
790;DHT22;378;48.844;9.156;2024-01-11T14:17:52;0.50;99.90
790;DHT22;378;48.844;9.156;2024-01-11T14:20:19;0.50;99.90
790;DHT22;378;48.844;9.156;2024-01-11T14:22:46;0.50;99.90
790;DHT22;378;48.844;9.156;2024-01-11T14:25:17;0.60;99.90
790;DHT22;378;48.844;9.156;2024-01-11T14:27:44;0.60;99.90
790;DHT22;378;48.844;9.156;2024-01-11T14:30:12;0.60;99.90
790;DHT22;378;48.844;9.156;2024-01-11T14:32:39;0.60;99.90
790;DHT22;378;48.844;9.156;2024-01-11T14:35:07;0.50;99.90
790;DHT22;378;48.844;9.156;2024-01-11T14:37:35;0.50;99.90
790;DHT22;378;48.844;9.156;2024-01-11T14:40:03;0.40;99.90
790;DHT22;378;48.844;9.156;2024-01-11T14:42:31;0.30;99.90
790;DHT22;378;48.844;9.156;2024-01-11T14:44:58;0.20;99.90
790;DHT22;378;48.844;9.156;2024-01-11T14:47:25;0.10;99.90
790;DHT22;378;48.844;9.156;2024-01-11T14:49:52;0.30;99.90
790;DHT22;378;48.844;9.156;2024-01-11T14:52:19;0.20;99.90
790;DHT22;378;48.844;9.156;2024-01-11T14:54:46;0.20;99.90
790;DHT22;378;48.844;9.156;2024-01-11T14:57:14;0.20;99.90
790;DHT22;378;48.844;9.156;2024-01-11T14:59:42;0.20;99.90
790;DHT22;378;48.844;9.156;2024-01-11T15:02:09;0.30;99.90
790;DHT22;378;48.844;9.156;2024-01-11T15:04:36;0.10;99.90
790;DHT22;378;48.844;9.156;2024-01-11T15:07:03;0.10;99.90
790;DHT22;378;48.844;9.156;2024-01-11T15:09:30;0.20;99.90
790;DHT22;378;48.844;9.156;2024-01-11T15:11:57;0.20;99.90
790;DHT22;378;48.844;9.156;2024-01-11T15:14:25;0.20;99.90
790;DHT22;378;48.844;9.156;2024-01-11T15:16:54;0.10;99.90
790;DHT22;378;48.844;9.156;2024-01-11T15:19:21;0.10;99.90
790;DHT22;378;48.844;9.156;2024-01-11T15:21:47;0.00;99.90
790;DHT22;378;48.844;9.156;2024-01-11T15:24:14;0.00;99.90
790;DHT22;378;48.844;9.156;2024-01-11T15:26:44;-0.10;99.90
790;DHT22;378;48.844;9.156;2024-01-11T15:29:10;-0.10;99.90
790;DHT22;378;48.844;9.156;2024-01-11T15:31:37;-0.10;99.90
790;DHT22;378;48.844;9.156;2024-01-11T15:34:08;-0.10;99.90
790;DHT22;378;48.844;9.156;2024-01-11T15:36:35;-0.10;99.90
790;DHT22;378;48.844;9.156;2024-01-11T15:39:02;0.00;99.90
790;DHT22;378;48.844;9.156;2024-01-11T15:41:29;0.00;99.90
790;DHT22;378;48.844;9.156;2024-01-11T15:43:56;-0.10;99.90
790;DHT22;378;48.844;9.156;2024-01-11T15:46:24;-0.20;99.90
790;DHT22;378;48.844;9.156;2024-01-11T15:48:51;-0.30;99.90
790;DHT22;378;48.844;9.156;2024-01-11T15:51:19;-0.30;99.90
790;DHT22;378;48.844;9.156;2024-01-11T15:53:46;-0.40;99.90
790;DHT22;378;48.844;9.156;2024-01-11T15:56:24;-0.50;99.90
790;DHT22;378;48.844;9.156;2024-01-11T15:58:51;-0.50;99.90
790;DHT22;378;48.844;9.156;2024-01-11T16:01:18;-0.50;99.90
790;DHT22;378;48.844;9.156;2024-01-11T16:03:45;-0.50;99.90
790;DHT22;378;48.844;9.156;2024-01-11T16:06:13;-0.40;99.90
790;DHT22;378;48.844;9.156;2024-01-11T16:08:41;-0.50;99.90
790;DHT22;378;48.844;9.156;2024-01-11T16:11:08;-0.50;99.90
790;DHT22;378;48.844;9.156;2024-01-11T16:13:35;-0.50;99.90
790;DHT22;378;48.844;9.156;2024-01-11T16:16:02;-0.50;99.90
790;DHT22;378;48.844;9.156;2024-01-11T16:18:28;-0.50;99.90
790;DHT22;378;48.844;9.156;2024-01-11T16:20:58;-0.50;99.90
790;DHT22;378;48.844;9.156;2024-01-11T16:23:25;-0.60;99.90
790;DHT22;378;48.844;9.156;2024-01-11T16:25:53;-0.70;99.90
790;DHT22;378;48.844;9.156;2024-01-11T16:28:20;-0.70;99.90
790;DHT22;378;48.844;9.156;2024-01-11T16:30:47;-0.80;99.90
790;DHT22;378;48.844;9.156;2024-01-11T16:33:14;-0.70;99.90
790;DHT22;378;48.844;9.156;2024-01-11T16:35:40;-0.80;99.90
790;DHT22;378;48.844;9.156;2024-01-11T16:38:11;-0.80;99.90